^^
Saratoga-Weather Station Historical Data
Daily Summary for June 11, 2020 Units:  Both    English   Metric
Daily Weekly Monthly Yearly Custom
  High: Low: Average:
Temperature: 73 °F /  22.8 °C 52 °F /  11.1 °C 64 °F /  17.8 °C
Dew Point: 53.8 °F /  12.1 °C 43.7 °F /  6.5 °C 48.6 °F /  9.2 °C
Humidity: 89% 37% 60%
Wind Speed: 8.1mph /  13km/h - 2.1mph /  3.3km/h
Wind Gust: 11mph /  17.7km/h - -
Wind- - WSW
Pressure: 30.2 in /  1024.0 hPa 30.1 in /  1018.0 hPa -
Precipitation: 0 in /  0.0 mm    
Historical Graphs
 
 
Tabular Data for June 11, 2020
Time Temperature Dew Point Pressure Wind Wind Speed Wind Gust Humidity Rainfall Rate (Hourly) solar
00:03 63 °F /  17.2 °C 53.8 °F /  12.1 °C 30.1in /  1018.0hPa NW 2.9mph /  4.7km/h 3mph /  4.8km/h 72% 0in /  0.0mm 0 W/m2
00:08 62.8 °F /  17.1 °C 53.2 °F /  11.8 °C 30.1in /  1018.0hPa NNW 6mph /  9.7km/h 6mph /  9.7km/h 71% 0in /  0.0mm 0 W/m2
00:13 62.6 °F /  17 °C 53.1 °F /  11.7 °C 30.1in /  1018.0hPa NNE 0.9mph /  1.4km/h 2mph /  3.2km/h 71% 0in /  0.0mm 0 W/m2
00:18 62.4 °F /  16.9 °C 52.9 °F /  11.6 °C 30.1in /  1018.0hPa NW 4.9mph /  7.9km/h 8mph /  12.9km/h 71% 0in /  0.0mm 0 W/m2
00:23 62.4 °F /  16.9 °C 53.2 °F /  11.8 °C 30.1in /  1018.3hPa WNW 2mph /  3.2km/h 3mph /  4.8km/h 72% 0in /  0.0mm 0 W/m2
00:28 62.4 °F /  16.9 °C 52.9 °F /  11.6 °C 30.1in /  1018.3hPa NNW 2.9mph /  4.7km/h 6mph /  9.7km/h 71% 0in /  0.0mm 0 W/m2
00:38 62.2 °F /  16.8 °C 52.7 °F /  11.5 °C 30.1in /  1018.3hPa West 4mph /  6.4km/h 6mph /  9.7km/h 71% 0in /  0.0mm 0 W/m2
00:43 62.1 °F /  16.7 °C 52.5 °F /  11.4 °C 30.1in /  1018.6hPa WSW 4.9mph /  7.9km/h 8mph /  12.9km/h 71% 0in /  0.0mm 0 W/m2
00:48 62.1 °F /  16.7 °C 52.5 °F /  11.4 °C 30.1in /  1018.6hPa West 2mph /  3.2km/h 4mph /  6.4km/h 71% 0in /  0.0mm 0 W/m2
00:53 62.1 °F /  16.7 °C 52.5 °F /  11.4 °C 30.1in /  1018.6hPa NW 2mph /  3.2km/h 8mph /  12.9km/h 71% 0in /  0.0mm 0 W/m2
00:58 61.9 °F /  16.6 °C 52.3 °F /  11.3 °C 30.1in /  1018.6hPa West 2mph /  3.2km/h 4mph /  6.4km/h 71% 0in /  0.0mm 0 W/m2
01:03 61.9 °F /  16.6 °C 52.3 °F /  11.3 °C 30.1in /  1018.6hPa NW 4mph /  6.4km/h 6mph /  9.7km/h 71% 0in /  0.0mm 0 W/m2
01:08 61.9 °F /  16.6 °C 52.3 °F /  11.3 °C 30.1in /  1018.6hPa WNW 0.9mph /  1.4km/h 4mph /  6.4km/h 71% 0in /  0.0mm 0 W/m2
01:13 61.7 °F /  16.5 °C 52.5 °F /  11.4 °C 30.1in /  1018.6hPa WNW 4.9mph /  7.9km/h 6mph /  9.7km/h 72% 0in /  0.0mm 0 W/m2
01:19 61.5 °F /  16.4 °C 52.3 °F /  11.3 °C 30.1in /  1018.6hPa West 4mph /  6.4km/h 6mph /  9.7km/h 72% 0in /  0.0mm 0 W/m2
01:24 61.5 °F /  16.4 °C 52.3 °F /  11.3 °C 30.1in /  1018.6hPa NW 2mph /  3.2km/h 7mph /  11.3km/h 72% 0in /  0.0mm 0 W/m2
01:29 61.3 °F /  16.3 °C 52.7 °F /  11.5 °C 30.1in /  1019.0hPa West 2.9mph /  4.7km/h 6mph /  9.7km/h 73% 0in /  0.0mm 0 W/m2
01:34 61.2 °F /  16.2 °C 52.9 °F /  11.6 °C 30.1in /  1019.0hPa WNW 6mph /  9.7km/h 6mph /  9.7km/h 74% 0in /  0.0mm 0 W/m2
01:39 61 °F /  16.1 °C 53.1 °F /  11.7 °C 30.1in /  1019.0hPa WSW 4mph /  6.4km/h 7mph /  11.3km/h 75% 0in /  0.0mm 0 W/m2
01:44 60.6 °F /  15.9 °C 53.1 °F /  11.7 °C 30.1in /  1019.0hPa WNW 4mph /  6.4km/h 5mph /  8km/h 76% 0in /  0.0mm 0 W/m2
01:49 60.4 °F /  15.8 °C 52.9 °F /  11.6 °C 30.1in /  1019.0hPa WSW 4.9mph /  7.9km/h 7mph /  11.3km/h 76% 0in /  0.0mm 0 W/m2
01:54 60.4 °F /  15.8 °C 52.9 °F /  11.6 °C 30.1in /  1019.0hPa WNW 2mph /  3.2km/h 5mph /  8km/h 76% 0in /  0.0mm 0 W/m2
01:59 60.3 °F /  15.7 °C 52.7 °F /  11.5 °C 30.1in /  1019.0hPa NW 2mph /  3.2km/h 4mph /  6.4km/h 76% 0in /  0.0mm 0 W/m2
02:04 60.1 °F /  15.6 °C 52.9 °F /  11.6 °C 30.1in /  1019.0hPa WNW 4mph /  6.4km/h 6mph /  9.7km/h 77% 0in /  0.0mm 0 W/m2
02:09 59.7 °F /  15.4 °C 52.5 °F /  11.4 °C 30.1in /  1019.0hPa West 6.9mph /  11.1km/h 7mph /  11.3km/h 77% 0in /  0.0mm 0 W/m2
02:14 59.5 °F /  15.3 °C 52.3 °F /  11.3 °C 30.1in /  1019.3hPa WNW 4mph /  6.4km/h 5mph /  8km/h 77% 0in /  0.0mm 0 W/m2
02:19 59.4 °F /  15.2 °C 52.5 °F /  11.4 °C 30.1in /  1019.3hPa West 2mph /  3.2km/h 4mph /  6.4km/h 78% 0in /  0.0mm 0 W/m2
02:24 59.2 °F /  15.1 °C 52.3 °F /  11.3 °C 30.1in /  1019.3hPa WNW 2.9mph /  4.7km/h 4mph /  6.4km/h 78% 0in /  0.0mm 0 W/m2
02:29 58.6 °F /  14.8 °C 51.8 °F /  11 °C 30.1in /  1019.6hPa West 2mph /  3.2km/h 4mph /  6.4km/h 78% 0in /  0.0mm 0 W/m2
02:34 58.5 °F /  14.7 °C 51.6 °F /  10.9 °C 30.1in /  1019.6hPa West 4mph /  6.4km/h 6mph /  9.7km/h 78% 0in /  0.0mm 0 W/m2
02:39 58.3 °F /  14.6 °C 51.4 °F /  10.8 °C 30.1in /  1019.6hPa West 2.9mph /  4.7km/h 4mph /  6.4km/h 78% 0in /  0.0mm 0 W/m2
02:44 58.3 °F /  14.6 °C 51.4 °F /  10.8 °C 30.1in /  1019.6hPa WSW 4mph /  6.4km/h 4mph /  6.4km/h 78% 0in /  0.0mm 0 W/m2
02:49 57.9 °F /  14.4 °C 51.1 °F /  10.6 °C 30.1in /  1019.6hPa WSW 2.9mph /  4.7km/h 3mph /  4.8km/h 78% 0in /  0.0mm 0 W/m2
02:54 57.9 °F /  14.4 °C 51.4 °F /  10.8 °C 30.1in /  1019.6hPa WNW 0.9mph /  1.4km/h 3mph /  4.8km/h 79% 0in /  0.0mm 0 W/m2
02:59 57.7 °F /  14.3 °C 51.3 °F /  10.7 °C 30.1in /  1019.6hPa WSW 0.9mph /  1.4km/h 5mph /  8km/h 79% 0in /  0.0mm 0 W/m2
03:05 57.6 °F /  14.2 °C 51.4 °F /  10.8 °C 30.1in /  1019.6hPa West 2mph /  3.2km/h 2mph /  3.2km/h 80% 0in /  0.0mm 0 W/m2
03:10 57.4 °F /  14.1 °C 51.3 °F /  10.7 °C 30.1in /  1019.6hPa West 0.9mph /  1.4km/h 5mph /  8km/h 80% 0in /  0.0mm 0 W/m2
03:15 57 °F /  13.9 °C 50.9 °F /  10.5 °C 30.1in /  1019.6hPa West 2.9mph /  4.7km/h 3mph /  4.8km/h 80% 0in /  0.0mm 0 W/m2
03:20 56.8 °F /  13.8 °C 50.7 °F /  10.4 °C 30.1in /  1019.6hPa West 2.9mph /  4.7km/h 4mph /  6.4km/h 80% 0in /  0.0mm 0 W/m2
03:25 56.7 °F /  13.7 °C 50.9 °F /  10.5 °C 30.1in /  1019.6hPa West 2.9mph /  4.7km/h 4mph /  6.4km/h 81% 0in /  0.0mm 0 W/m2
03:30 56.5 °F /  13.6 °C 50.4 °F /  10.2 °C 30.1in /  1019.6hPa West 2mph /  3.2km/h 3mph /  4.8km/h 80% 0in /  0.0mm 0 W/m2
03:35 56.5 °F /  13.6 °C 50.4 °F /  10.2 °C 30.1in /  1019.6hPa West 2mph /  3.2km/h 4mph /  6.4km/h 80% 0in /  0.0mm 0 W/m2
03:40 56.5 °F /  13.6 °C 50.4 °F /  10.2 °C 30.1in /  1019.6hPa WNW 2.9mph /  4.7km/h 4mph /  6.4km/h 80% 0in /  0.0mm 0 W/m2
03:45 56.1 °F /  13.4 °C 50 °F /  10 °C 30.1in /  1019.6hPa West 2mph /  3.2km/h 4mph /  6.4km/h 80% 0in /  0.0mm 0 W/m2
03:50 56.1 °F /  13.4 °C 50 °F /  10 °C 30.1in /  1019.6hPa West 2mph /  3.2km/h 2mph /  3.2km/h 80% 0in /  0.0mm 0 W/m2
03:55 55.9 °F /  13.3 °C 49.8 °F /  9.9 °C 30.1in /  1019.6hPa West 2mph /  3.2km/h 4mph /  6.4km/h 80% 0in /  0.0mm 0 W/m2
04:00 55.8 °F /  13.2 °C 49.6 °F /  9.8 °C 30.1in /  1019.6hPa West 2mph /  3.2km/h 3mph /  4.8km/h 80% 0in /  0.0mm 0 W/m2
04:05 55.8 °F /  13.2 °C 49.6 °F /  9.8 °C 30.1in /  1019.6hPa West 2.9mph /  4.7km/h 6mph /  9.7km/h 80% 0in /  0.0mm 0 W/m2
04:10 55.9 °F /  13.3 °C 49.5 °F /  9.7 °C 30.1in /  1019.6hPa West 2mph /  3.2km/h 3mph /  4.8km/h 79% 0in /  0.0mm 0 W/m2
04:15 55.9 °F /  13.3 °C 49.5 °F /  9.7 °C 30.1in /  1019.6hPa West 0.9mph /  1.4km/h 4mph /  6.4km/h 79% 0in /  0.0mm 0 W/m2
04:20 55.8 °F /  13.2 °C 49.6 °F /  9.8 °C 30.1in /  1019.6hPa West 2mph /  3.2km/h 4mph /  6.4km/h 80% 0in /  0.0mm 0 W/m2
04:25 55.8 °F /  13.2 °C 49.6 °F /  9.8 °C 30.1in /  1019.6hPa Calm   6mph /  9.7km/h 80% 0in /  0.0mm 0 W/m2
04:30 55.6 °F /  13.1 °C 49.5 °F /  9.7 °C 30.1in /  1019.6hPa West 2mph /  3.2km/h 2mph /  3.2km/h 80% 0in /  0.0mm 0 W/m2
04:35 55.2 °F /  12.9 °C 49.1 °F /  9.5 °C 30.1in /  1019.6hPa Calm   2mph /  3.2km/h 80% 0in /  0.0mm 0 W/m2
04:40 55 °F /  12.8 °C 49.3 °F /  9.6 °C 30.1in /  1019.6hPa Calm     81% 0in /  0.0mm 0 W/m2
04:45 54.9 °F /  12.7 °C 49.1 °F /  9.5 °C 30.1in /  1019.6hPa Calm     81% 0in /  0.0mm 0 W/m2
04:50 54.5 °F /  12.5 °C 48.7 °F /  9.3 °C 30.1in /  1019.6hPa Calm     81% 0in /  0.0mm 0 W/m2
04:55 54.1 °F /  12.3 °C 48.7 °F /  9.3 °C 30.1in /  1019.6hPa Calm     82% 0in /  0.0mm 0 W/m2
05:00 54 °F /  12.2 °C 48.9 °F /  9.4 °C 30.1in /  1019.6hPa WSW 0.9mph /  1.4km/h 2mph /  3.2km/h 83% 0in /  0.0mm 0 W/m2
05:05 53.4 °F /  11.9 °C 48.4 °F /  9.1 °C 30.1in /  1020.0hPa WSW 0.9mph /  1.4km/h 1mph /  1.6km/h 83% 0in /  0.0mm 0 W/m2
05:10 53.4 °F /  11.9 °C 48.7 °F /  9.3 °C 30.1in /  1019.6hPa Calm   2mph /  3.2km/h 84% 0in /  0.0mm 0 W/m2
05:15 53.1 °F /  11.7 °C 48.7 °F /  9.3 °C 30.1in /  1020.0hPa WSW 0.9mph /  1.4km/h 1mph /  1.6km/h 85% 0in /  0.0mm 0 W/m2
05:20 53.1 °F /  11.7 °C 48.7 °F /  9.3 °C 30.1in /  1020.0hPa Calm   2mph /  3.2km/h 85% 0in /  0.0mm 0 W/m2
05:25 52.9 °F /  11.6 °C 48.7 °F /  9.3 °C 30.1in /  1020.0hPa WSW 0.9mph /  1.4km/h 1mph /  1.6km/h 86% 0in /  0.0mm 0 W/m2
05:30 52.5 °F /  11.4 °C 48.4 °F /  9.1 °C 30.1in /  1020.0hPa Calm     86% 0in /  0.0mm 0 W/m2
05:35 52.3 °F /  11.3 °C 48.6 °F /  9.2 °C 30.1in /  1020.0hPa Calm     87% 0in /  0.0mm 0 W/m2
05:40 52.2 °F /  11.2 °C 48.4 °F /  9.1 °C 30.1in /  1020.3hPa Calm   1mph /  1.6km/h 87% 0in /  0.0mm 0 W/m2
05:45 52.2 °F /  11.2 °C 48.4 °F /  9.1 °C 30.1in /  1020.3hPa WSW 0.9mph /  1.4km/h 2mph /  3.2km/h 87% 0in /  0.0mm 5 W/m2
05:50 52.2 °F /  11.2 °C 48.7 °F /  9.3 °C 30.1in /  1020.3hPa Calm   1mph /  1.6km/h 88% 0in /  0.0mm 5 W/m2
05:55 52 °F /  11.1 °C 48.6 °F /  9.2 °C 30.1in /  1020.3hPa Calm     88% 0in /  0.0mm 9 W/m2
06:00 52 °F /  11.1 °C 48.6 °F /  9.2 °C 30.1in /  1020.3hPa Calm     88% 0in /  0.0mm 11 W/m2
06:05 52 °F /  11.1 °C 48.9 °F /  9.4 °C 30.1in /  1020.7hPa Calm   1mph /  1.6km/h 89% 0in /  0.0mm 12 W/m2
06:10 52 °F /  11.1 °C 48.9 °F /  9.4 °C 30.1in /  1020.7hPa Calm     89% 0in /  0.0mm 14 W/m2
06:15 52 °F /  11.1 °C 48.9 °F /  9.4 °C 30.1in /  1020.7hPa Calm   1mph /  1.6km/h 89% 0in /  0.0mm 16 W/m2
06:20 52 °F /  11.1 °C 48.9 °F /  9.4 °C 30.1in /  1020.7hPa Calm     89% 0in /  0.0mm 18 W/m2
06:25 52 °F /  11.1 °C 48.9 °F /  9.4 °C 30.1in /  1020.7hPa WSW 0.9mph /  1.4km/h 1mph /  1.6km/h 89% 0in /  0.0mm 19 W/m2
06:30 52.3 °F /  11.3 °C 49.3 °F /  9.6 °C 30.1in /  1020.7hPa Calm     89% 0in /  0.0mm 21 W/m2
06:35 52.7 °F /  11.5 °C 49.5 °F /  9.7 °C 30.1in /  1020.7hPa WSW 0.9mph /  1.4km/h 2mph /  3.2km/h 89% 0in /  0.0mm 23 W/m2
06:40 53.1 °F /  11.7 °C 49.8 °F /  9.9 °C 30.1in /  1020.7hPa WSW 0.9mph /  1.4km/h 2mph /  3.2km/h 89% 0in /  0.0mm 25 W/m2
06:45 53.4 °F /  11.9 °C 50 °F /  10 °C 30.1in /  1020.7hPa Calm   1mph /  1.6km/h 88% 0in /  0.0mm 25 W/m2
06:50 53.8 °F /  12.1 °C 50.4 °F /  10.2 °C 30.2in /  1021.0hPa WSW 0.9mph /  1.4km/h 2mph /  3.2km/h 88% 0in /  0.0mm 26 W/m2
06:55 54.1 °F /  12.3 °C 50.4 °F /  10.2 °C 30.2in /  1021.0hPa Calm   2mph /  3.2km/h 87% 0in /  0.0mm 28 W/m2
07:00 54.3 °F /  12.4 °C 50.2 °F /  10.1 °C 30.2in /  1021.0hPa West 2mph /  3.2km/h 3mph /  4.8km/h 86% 0in /  0.0mm 28 W/m2
07:05 54.9 °F /  12.7 °C 50.4 °F /  10.2 °C 30.2in /  1021.0hPa Calm   2mph /  3.2km/h 85% 0in /  0.0mm 30 W/m2
07:10 55 °F /  12.8 °C 50.5 °F /  10.3 °C 30.2in /  1021.0hPa West 2mph /  3.2km/h 3mph /  4.8km/h 85% 0in /  0.0mm 32 W/m2
07:15 55.4 °F /  13 °C 50.7 °F /  10.4 °C 30.2in /  1021.3hPa Calm     84% 0in /  0.0mm 32 W/m2
07:20 55.6 °F /  13.1 °C 50.5 °F /  10.3 °C 30.2in /  1021.3hPa NW 2mph /  3.2km/h 2mph /  3.2km/h 83% 0in /  0.0mm 33 W/m2
07:25 55.8 °F /  13.2 °C 50.7 °F /  10.4 °C 30.2in /  1021.3hPa Calm     83% 0in /  0.0mm 33 W/m2
07:30 55.9 °F /  13.3 °C 50.9 °F /  10.5 °C 30.2in /  1021.3hPa NW 0.9mph /  1.4km/h 2mph /  3.2km/h 83% 0in /  0.0mm 35 W/m2
07:35 56.1 °F /  13.4 °C 50.7 °F /  10.4 °C 30.2in /  1021.3hPa Calm   1mph /  1.6km/h 82% 0in /  0.0mm 35 W/m2
07:40 56.3 °F /  13.5 °C 50.9 °F /  10.5 °C 30.2in /  1021.3hPa North 0.9mph /  1.4km/h 2mph /  3.2km/h 82% 0in /  0.0mm 37 W/m2
07:45 56.5 °F /  13.6 °C 50.7 °F /  10.4 °C 30.2in /  1021.3hPa ESE 2mph /  3.2km/h 3mph /  4.8km/h 81% 0in /  0.0mm 37 W/m2
07:50 56.7 °F /  13.7 °C 50.9 °F /  10.5 °C 30.2in /  1021.3hPa Calm   1mph /  1.6km/h 81% 0in /  0.0mm 53 W/m2
07:55 57 °F /  13.9 °C 50.9 °F /  10.5 °C 30.2in /  1021.3hPa Calm   2mph /  3.2km/h 80% 0in /  0.0mm 234 W/m2
08:00 57.4 °F /  14.1 °C 50.9 °F /  10.5 °C 30.2in /  1021.7hPa NW 4mph /  6.4km/h 5mph /  8km/h 79% 0in /  0.0mm 250 W/m2
08:05 57.7 °F /  14.3 °C 50.9 °F /  10.5 °C 30.2in /  1021.7hPa ESE 0.9mph /  1.4km/h 1mph /  1.6km/h 78% 0in /  0.0mm 264 W/m2
08:10 58.5 °F /  14.7 °C 51.6 °F /  10.9 °C 30.2in /  1021.7hPa East 5mph /  8km/h 5mph /  8km/h 78% 0in /  0.0mm 278 W/m2
08:15 59 °F /  15 °C 51.8 °F /  11 °C 30.2in /  1021.7hPa Calm   2mph /  3.2km/h 77% 0in /  0.0mm 290 W/m2
08:20 59.5 °F /  15.3 °C 52 °F /  11.1 °C 30.2in /  1022.0hPa SSW 0.9mph /  1.4km/h 5mph /  8km/h 76% 0in /  0.0mm 279 W/m2
08:25 59.9 °F /  15.5 °C 51.6 °F /  10.9 °C 30.2in /  1022.0hPa Calm   4mph /  6.4km/h 74% 0in /  0.0mm 169 W/m2
08:30 60.3 °F /  15.7 °C 51.6 °F /  10.9 °C 30.2in /  1022.0hPa South 0.9mph /  1.4km/h 4mph /  6.4km/h 73% 0in /  0.0mm 74 W/m2
08:35 60.3 °F /  15.7 °C 51.6 °F /  10.9 °C 30.2in /  1022.0hPa NW 0.9mph /  1.4km/h 5mph /  8km/h 73% 0in /  0.0mm 51 W/m2
08:40 60.8 °F /  16 °C 52.2 °F /  11.2 °C 30.2in /  1022.0hPa ENE 4mph /  6.4km/h 4mph /  6.4km/h 73% 0in /  0.0mm 51 W/m2
08:45 61.2 °F /  16.2 °C 52 °F /  11.1 °C 30.2in /  1022.0hPa Calm   3mph /  4.8km/h 72% 0in /  0.0mm 51 W/m2
08:50 61.3 °F /  16.3 °C 51.8 °F /  11 °C 30.2in /  1022.0hPa NNW 0.9mph /  1.4km/h 3mph /  4.8km/h 71% 0in /  0.0mm 49 W/m2
08:55 61.5 °F /  16.4 °C 52 °F /  11.1 °C 30.2in /  1022.0hPa East 2.9mph /  4.7km/h 3mph /  4.8km/h 71% 0in /  0.0mm 49 W/m2
09:00 61.9 °F /  16.6 °C 52 °F /  11.1 °C 30.2in /  1022.4hPa ENE 0.9mph /  1.4km/h 5mph /  8km/h 70% 0in /  0.0mm 47 W/m2
09:05 62.2 °F /  16.8 °C 52 °F /  11.1 °C 30.2in /  1022.4hPa East 2mph /  3.2km/h 6mph /  9.7km/h 69% 0in /  0.0mm 47 W/m2
09:10 62.4 °F /  16.9 °C 52.5 °F /  11.4 °C 30.2in /  1022.4hPa ESE 0.9mph /  1.4km/h 2mph /  3.2km/h 70% 0in /  0.0mm 47 W/m2
09:15 62.8 °F /  17.1 °C 52.5 °F /  11.4 °C 30.2in /  1022.4hPa Calm   6mph /  9.7km/h 69% 0in /  0.0mm 141 W/m2
09:20 63 °F /  17.2 °C 52.2 °F /  11.2 °C 30.2in /  1022.4hPa ESE 2mph /  3.2km/h 4mph /  6.4km/h 68% 0in /  0.0mm 357 W/m2
09:25 63.1 °F /  17.3 °C 52.3 °F /  11.3 °C 30.2in /  1022.4hPa Calm   4mph /  6.4km/h 68% 0in /  0.0mm 441 W/m2
09:30 63.3 °F /  17.4 °C 52.5 °F /  11.4 °C 30.2in /  1022.4hPa NW 0.9mph /  1.4km/h 5mph /  8km/h 68% 0in /  0.0mm 499 W/m2
09:35 63.7 °F /  17.6 °C 52.5 °F /  11.4 °C 30.2in /  1022.4hPa NNW 2mph /  3.2km/h 3mph /  4.8km/h 67% 0in /  0.0mm 515 W/m2
09:40 64 °F /  17.8 °C 52.5 °F /  11.4 °C 30.2in /  1022.4hPa East 0.9mph /  1.4km/h 5mph /  8km/h 66% 0in /  0.0mm 534 W/m2
09:45 64 °F /  17.8 °C 52 °F /  11.1 °C 30.2in /  1022.4hPa Calm   3mph /  4.8km/h 65% 0in /  0.0mm 506 W/m2
09:50 64.2 °F /  17.9 °C 52.2 °F /  11.2 °C 30.2in /  1022.0hPa NE 2mph /  3.2km/h 5mph /  8km/h 65% 0in /  0.0mm 585 W/m2
09:55 64.6 °F /  18.1 °C 52.5 °F /  11.4 °C 30.2in /  1022.4hPa NNW 2.9mph /  4.7km/h 4mph /  6.4km/h 65% 0in /  0.0mm 636 W/m2
10:00 64.8 °F /  18.2 °C 51.8 °F /  11 °C 30.2in /  1022.4hPa West 2.9mph /  4.7km/h 4mph /  6.4km/h 63% 0in /  0.0mm 635 W/m2
10:05 64.9 °F /  18.3 °C 52 °F /  11.1 °C 30.2in /  1022.4hPa West 0.9mph /  1.4km/h 3mph /  4.8km/h 63% 0in /  0.0mm 675 W/m2
10:10 64.9 °F /  18.3 °C 52 °F /  11.1 °C 30.2in /  1022.4hPa Calm   2mph /  3.2km/h 63% 0in /  0.0mm 636 W/m2
10:15 65.1 °F /  18.4 °C 51.8 °F /  11 °C 30.2in /  1022.4hPa South 0.9mph /  1.4km/h 4mph /  6.4km/h 62% 0in /  0.0mm 197 W/m2
10:20 65.8 °F /  18.8 °C 51.6 °F /  10.9 °C 30.2in /  1022.4hPa Calm   3mph /  4.8km/h 60% 0in /  0.0mm 689 W/m2
10:25 65.5 °F /  18.6 °C 50.7 °F /  10.4 °C 30.2in /  1022.4hPa WSW 2mph /  3.2km/h 6mph /  9.7km/h 59% 0in /  0.0mm 740 W/m2
10:30 65.5 °F /  18.6 °C 50.7 °F /  10.4 °C 30.2in /  1022.4hPa NW 2mph /  3.2km/h 9mph /  14.5km/h 59% 0in /  0.0mm 675 W/m2
10:35 65.5 °F /  18.6 °C 50.7 °F /  10.4 °C 30.2in /  1022.4hPa North 0.9mph /  1.4km/h 1mph /  1.6km/h 59% 0in /  0.0mm 195 W/m2
10:40 65.5 °F /  18.6 °C 49.3 °F /  9.6 °C 30.2in /  1022.4hPa NNW 2.9mph /  4.7km/h 6mph /  9.7km/h 56% 0in /  0.0mm 132 W/m2
10:45 65.1 °F /  18.4 °C 49.5 °F /  9.7 °C 30.2in /  1022.4hPa ESE 0.9mph /  1.4km/h 3mph /  4.8km/h 57% 0in /  0.0mm 786 W/m2
10:50 65.3 °F /  18.5 °C 50.2 °F /  10.1 °C 30.2in /  1022.4hPa WNW 0.9mph /  1.4km/h 5mph /  8km/h 58% 0in /  0.0mm 786 W/m2
10:55 65.7 °F /  18.7 °C 50.5 °F /  10.3 °C 30.2in /  1022.4hPa Calm   3mph /  4.8km/h 58% 0in /  0.0mm 163 W/m2
11:00 65.3 °F /  18.5 °C 48.7 °F /  9.3 °C 30.2in /  1022.4hPa NNW 4mph /  6.4km/h 4mph /  6.4km/h 55% 0in /  0.0mm 118 W/m2
11:05 65.1 °F /  18.4 °C 49.1 °F /  9.5 °C 30.2in /  1022.4hPa NE 2.9mph /  4.7km/h 3mph /  4.8km/h 56% 0in /  0.0mm 805 W/m2
11:10 65.7 °F /  18.7 °C 48.6 °F /  9.2 °C 30.2in /  1022.4hPa ESE 0.9mph /  1.4km/h 2mph /  3.2km/h 54% 0in /  0.0mm 840 W/m2
11:15 66.2 °F /  19 °C 49.1 °F /  9.5 °C 30.2in /  1022.4hPa NE 4mph /  6.4km/h 5mph /  8km/h 54% 0in /  0.0mm 905 W/m2
11:20 66.7 °F /  19.3 °C 48 °F /  8.9 °C 30.2in /  1022.7hPa WNW 4mph /  6.4km/h 5mph /  8km/h 51% 0in /  0.0mm 220 W/m2
11:26 66.6 °F /  19.2 °C 48.4 °F /  9.1 °C 30.2in /  1022.7hPa North 0.9mph /  1.4km/h 2mph /  3.2km/h 52% 0in /  0.0mm 288 W/m2
11:31 66.9 °F /  19.4 °C 48.7 °F /  9.3 °C 30.2in /  1022.7hPa NNW 2.9mph /  4.7km/h 6mph /  9.7km/h 52% 0in /  0.0mm 396 W/m2
11:36 66.9 °F /  19.4 °C 48.2 °F /  9 °C 30.2in /  1022.7hPa NE 2.9mph /  4.7km/h 3mph /  4.8km/h 51% 0in /  0.0mm 279 W/m2
11:41 66.9 °F /  19.4 °C 48.7 °F /  9.3 °C 30.2in /  1022.7hPa West 2.9mph /  4.7km/h 6mph /  9.7km/h 52% 0in /  0.0mm 939 W/m2
11:46 67.3 °F /  19.6 °C 49.6 °F /  9.8 °C 30.2in /  1022.7hPa NW 2mph /  3.2km/h 6mph /  9.7km/h 53% 0in /  0.0mm 933 W/m2
11:51 67.6 °F /  19.8 °C 47.3 °F /  8.5 °C 30.2in /  1022.7hPa NW 2.9mph /  4.7km/h 5mph /  8km/h 48% 0in /  0.0mm 255 W/m2
11:56 67.3 °F /  19.6 °C 47.5 °F /  8.6 °C 30.2in /  1022.7hPa West 0.9mph /  1.4km/h 4mph /  6.4km/h 49% 0in /  0.0mm 285 W/m2
12:01 67.5 °F /  19.7 °C 46.6 °F /  8.1 °C 30.2in /  1022.7hPa West 2.9mph /  4.7km/h 8mph /  12.9km/h 47% 0in /  0.0mm 251 W/m2
12:06 66.9 °F /  19.4 °C 47.1 °F /  8.4 °C 30.2in /  1022.7hPa NNW 2mph /  3.2km/h 4mph /  6.4km/h 49% 0in /  0.0mm 206 W/m2
12:11 66.6 °F /  19.2 °C 46.8 °F /  8.2 °C 30.2in /  1023.0hPa WSW 2mph /  3.2km/h 4mph /  6.4km/h 49% 0in /  0.0mm 200 W/m2
12:16 66.6 °F /  19.2 °C 46.8 °F /  8.2 °C 30.2in /  1023.0hPa NNE 4mph /  6.4km/h 7mph /  11.3km/h 49% 0in /  0.0mm 951 W/m2
12:21 67.6 °F /  19.8 °C 47.8 °F /  8.8 °C 30.2in /  1022.7hPa West 2mph /  3.2km/h 6mph /  9.7km/h 49% 0in /  0.0mm 986 W/m2
12:26 68 °F /  20 °C 47.7 °F /  8.7 °C 30.2in /  1022.7hPa WSW 4mph /  6.4km/h 7mph /  11.3km/h 48% 0in /  0.0mm 942 W/m2
12:31 68 °F /  20 °C 46.4 °F /  8 °C 30.2in /  1023.0hPa NW 2.9mph /  4.7km/h 5mph /  8km/h 46% 0in /  0.0mm 185 W/m2
12:36 67.3 °F /  19.6 °C 46.4 °F /  8 °C 30.2in /  1022.7hPa NW 2mph /  3.2km/h 4mph /  6.4km/h 47% 0in /  0.0mm 195 W/m2
12:41 66.7 °F /  19.3 °C 45.3 °F /  7.4 °C 30.2in /  1022.7hPa West 2mph /  3.2km/h 3mph /  4.8km/h 46% 0in /  0.0mm 311 W/m2
12:46 67.3 °F /  19.6 °C 46.4 °F /  8 °C 30.2in /  1022.7hPa West 2mph /  3.2km/h 3mph /  4.8km/h 47% 0in /  0.0mm 1020 W/m2
12:51 68 °F /  20 °C 46.9 °F /  8.3 °C 30.2in /  1022.7hPa WNW 2.9mph /  4.7km/h 7mph /  11.3km/h 47% 0in /  0.0mm 1007 W/m2
12:56 68.7 °F /  20.4 °C 47.1 °F /  8.4 °C 30.2in /  1022.7hPa ENE 2mph /  3.2km/h 8mph /  12.9km/h 46% 0in /  0.0mm 1046 W/m2
13:02 69.4 °F /  20.8 °C 46 °F /  7.8 °C 30.2in /  1022.7hPa WNW 2mph /  3.2km/h 5mph /  8km/h 43% 0in /  0.0mm 1044 W/m2
13:12 69.1 °F /  20.6 °C 45.7 °F /  7.6 °C 30.2in /  1022.7hPa WSW 4mph /  6.4km/h 6mph /  9.7km/h 43% 0in /  0.0mm 281 W/m2
13:17 68.9 °F /  20.5 °C 46 °F /  7.8 °C 30.2in /  1022.7hPa West 6mph /  9.7km/h 11mph /  17.7km/h 44% 0in /  0.0mm 1129 W/m2
13:22 69.4 °F /  20.8 °C 47.8 °F /  8.8 °C 30.2in /  1022.7hPa WSW 4.9mph /  7.9km/h 8mph /  12.9km/h 46% 0in /  0.0mm 1121 W/m2
13:27 70 °F /  21.1 °C 46.4 °F /  8 °C 30.2in /  1022.7hPa NNW 2.9mph /  4.7km/h 10mph /  16.1km/h 43% 0in /  0.0mm 1092 W/m2
13:32 70.2 °F /  21.2 °C 47.8 °F /  8.8 °C 30.2in /  1022.7hPa West 2.9mph /  4.7km/h 8mph /  12.9km/h 45% 0in /  0.0mm 1034 W/m2
13:37 71.1 °F /  21.7 °C 48 °F /  8.9 °C 30.2in /  1022.7hPa NE 0.9mph /  1.4km/h 4mph /  6.4km/h 44% 0in /  0.0mm 1037 W/m2
13:42 71.1 °F /  21.7 °C 46.8 °F /  8.2 °C 30.2in /  1022.7hPa WNW 6mph /  9.7km/h 6mph /  9.7km/h 42% 0in /  0.0mm 1079 W/m2
13:47 70.3 °F /  21.3 °C 46.2 °F /  7.9 °C 30.2in /  1022.7hPa South 0.9mph /  1.4km/h 3mph /  4.8km/h 42% 0in /  0.0mm 355 W/m2
13:52 69.8 °F /  21 °C 46.2 °F /  7.9 °C 30.2in /  1022.7hPa WSW 2.9mph /  4.7km/h 7mph /  11.3km/h 43% 0in /  0.0mm 309 W/m2
13:57 69.6 °F /  20.9 °C 46.2 °F /  7.9 °C 30.2in /  1022.7hPa NW 4mph /  6.4km/h 5mph /  8km/h 43% 0in /  0.0mm 408 W/m2
14:02 69.8 °F /  21 °C 46.9 °F /  8.3 °C 30.2in /  1022.7hPa West 4mph /  6.4km/h 7mph /  11.3km/h 44% 0in /  0.0mm 1139 W/m2
14:07 69.8 °F /  21 °C 46.9 °F /  8.3 °C 30.2in /  1022.7hPa NNW 0.9mph /  1.4km/h 4mph /  6.4km/h 44% 0in /  0.0mm 1072 W/m2
14:12 70 °F /  21.1 °C 47.1 °F /  8.4 °C 30.2in /  1022.7hPa SE 4.9mph /  7.9km/h 5mph /  8km/h 44% 0in /  0.0mm 1023 W/m2
14:17 70.9 °F /  21.6 °C 47.3 °F /  8.5 °C 30.2in /  1022.7hPa East 2mph /  3.2km/h 4mph /  6.4km/h 43% 0in /  0.0mm 1039 W/m2
14:22 71.4 °F /  21.9 °C 46.6 °F /  8.1 °C 30.2in /  1022.7hPa WNW 2mph /  3.2km/h 4mph /  6.4km/h 41% 0in /  0.0mm 1139 W/m2
14:27 71.4 °F /  21.9 °C 45.9 °F /  7.7 °C 30.2in /  1022.7hPa WNW 2.9mph /  4.7km/h 6mph /  9.7km/h 40% 0in /  0.0mm 241 W/m2
14:32 70.3 °F /  21.3 °C 46.8 °F /  8.2 °C 30.2in /  1022.7hPa NW 4mph /  6.4km/h 4mph /  6.4km/h 43% 0in /  0.0mm 200 W/m2
14:37 69.4 °F /  20.8 °C 46.6 °F /  8.1 °C 30.2in /  1022.7hPa North 2.9mph /  4.7km/h 7mph /  11.3km/h 44% 0in /  0.0mm 185 W/m2
14:42 69.3 °F /  20.7 °C 46.4 °F /  8 °C 30.2in /  1022.7hPa West 2mph /  3.2km/h 3mph /  4.8km/h 44% 0in /  0.0mm 229 W/m2
14:47 69.1 °F /  20.6 °C 45.7 °F /  7.6 °C 30.2in /  1022.7hPa NW 0.9mph /  1.4km/h 3mph /  4.8km/h 43% 0in /  0.0mm 311 W/m2
14:53 69.3 °F /  20.7 °C 46.9 °F /  8.3 °C 30.2in /  1022.7hPa NW 2.9mph /  4.7km/h 6mph /  9.7km/h 45% 0in /  0.0mm 1093 W/m2
14:58 70.2 °F /  21.2 °C 46.6 °F /  8.1 °C 30.2in /  1022.7hPa NNW 2mph /  3.2km/h 7mph /  11.3km/h 43% 0in /  0.0mm 1090 W/m2
15:03 71.1 °F /  21.7 °C 48 °F /  8.9 °C 30.2in /  1022.7hPa NNE 2mph /  3.2km/h 2mph /  3.2km/h 44% 0in /  0.0mm 1111 W/m2
15:08 71.6 °F /  22 °C 46.6 °F /  8.1 °C 30.2in /  1023.0hPa NNW 4.9mph /  7.9km/h 9mph /  14.5km/h 41% 0in /  0.0mm 264 W/m2
15:13 70.7 °F /  21.5 °C 46.4 °F /  8 °C 30.2in /  1022.7hPa NNW 2mph /  3.2km/h 6mph /  9.7km/h 42% 0in /  0.0mm 262 W/m2
15:18 70.2 °F /  21.2 °C 46.6 °F /  8.1 °C 30.2in /  1023.0hPa WSW 8.1mph /  13km/h 9mph /  14.5km/h 43% 0in /  0.0mm 288 W/m2
15:23 69.6 °F /  20.9 °C 46.8 °F /  8.2 °C 30.2in /  1023.0hPa SW 0.9mph /  1.4km/h 6mph /  9.7km/h 44% 0in /  0.0mm 397 W/m2
15:28 70.2 °F /  21.2 °C 47.3 °F /  8.5 °C 30.2in /  1023.0hPa WNW 2mph /  3.2km/h 4mph /  6.4km/h 44% 0in /  0.0mm 905 W/m2
15:33 71.1 °F /  21.7 °C 47.5 °F /  8.6 °C 30.2in /  1023.0hPa WNW 2.9mph /  4.7km/h 6mph /  9.7km/h 43% 0in /  0.0mm 963 W/m2
15:38 71.4 °F /  21.9 °C 46.6 °F /  8.1 °C 30.2in /  1023.0hPa West 4mph /  6.4km/h 8mph /  12.9km/h 41% 0in /  0.0mm 1004 W/m2
15:43 71.2 °F /  21.8 °C 46.4 °F /  8 °C 30.2in /  1023.0hPa NNW 2mph /  3.2km/h 3mph /  4.8km/h 41% 0in /  0.0mm 243 W/m2
15:48 70.9 °F /  21.6 °C 47.3 °F /  8.5 °C 30.2in /  1022.7hPa NW 4mph /  6.4km/h 4mph /  6.4km/h 43% 0in /  0.0mm 278 W/m2
15:53 70.5 °F /  21.4 °C 46.9 °F /  8.3 °C 30.2in /  1023.0hPa WSW 2mph /  3.2km/h 7mph /  11.3km/h 43% 0in /  0.0mm 369 W/m2
15:58 70.3 °F /  21.3 °C 46.8 °F /  8.2 °C 30.2in /  1023.0hPa WSW 6.9mph /  11.1km/h 7mph /  11.3km/h 43% 0in /  0.0mm 376 W/m2
16:03 70 °F /  21.1 °C 46.4 °F /  8 °C 30.2in /  1022.7hPa West 6mph /  9.7km/h 8mph /  12.9km/h 43% 0in /  0.0mm 424 W/m2
16:08 70 °F /  21.1 °C 46.4 °F /  8 °C 30.2in /  1022.7hPa WNW 0.9mph /  1.4km/h 8mph /  12.9km/h 43% 0in /  0.0mm 352 W/m2
16:13 70.3 °F /  21.3 °C 46.8 °F /  8.2 °C 30.2in /  1022.7hPa WNW 8.1mph /  13km/h 9mph /  14.5km/h 43% 0in /  0.0mm 352 W/m2
16:19 71.1 °F /  21.7 °C 46.8 °F /  8.2 °C 30.2in /  1022.7hPa WSW 0.9mph /  1.4km/h 4mph /  6.4km/h 42% 0in /  0.0mm 884 W/m2
16:24 71.6 °F /  22 °C 46 °F /  7.8 °C 30.2in /  1022.7hPa NW 0.9mph /  1.4km/h 4mph /  6.4km/h 40% 0in /  0.0mm 684 W/m2
16:29 72.5 °F /  22.5 °C 46.8 °F /  8.2 °C 30.2in /  1022.7hPa NW 2mph /  3.2km/h 3mph /  4.8km/h 40% 0in /  0.0mm 891 W/m2
16:34 72.7 °F /  22.6 °C 46.2 °F /  7.9 °C 30.2in /  1022.7hPa East 4mph /  6.4km/h 6mph /  9.7km/h 39% 0in /  0.0mm 232 W/m2
16:39 71.6 °F /  22 °C 46.6 °F /  8.1 °C 30.2in /  1022.7hPa NW 4mph /  6.4km/h 10mph /  16.1km/h 41% 0in /  0.0mm 197 W/m2
16:44 71.1 °F /  21.7 °C 47.5 °F /  8.6 °C 30.2in /  1022.7hPa WNW 2mph /  3.2km/h 3mph /  4.8km/h 43% 0in /  0.0mm 239 W/m2
16:49 70.9 °F /  21.6 °C 46.6 °F /  8.1 °C 30.2in /  1022.7hPa NNE 2mph /  3.2km/h 10mph /  16.1km/h 42% 0in /  0.0mm 336 W/m2
16:54 71.4 °F /  21.9 °C 47.1 °F /  8.4 °C 30.2in /  1022.7hPa NE 2mph /  3.2km/h 4mph /  6.4km/h 42% 0in /  0.0mm 902 W/m2
16:59 72.1 °F /  22.3 °C 47.1 °F /  8.4 °C 30.2in /  1023.0hPa NNW 4mph /  6.4km/h 9mph /  14.5km/h 41% 0in /  0.0mm 260 W/m2
17:04 72 °F /  22.2 °C 46.9 °F /  8.3 °C 30.2in /  1023.0hPa West 2mph /  3.2km/h 6mph /  9.7km/h 41% 0in /  0.0mm 225 W/m2
17:09 71.2 °F /  21.8 °C 45.7 °F /  7.6 °C 30.2in /  1022.7hPa NNW 2mph /  3.2km/h 4mph /  6.4km/h 40% 0in /  0.0mm 218 W/m2
17:14 71.2 °F /  21.8 °C 45 °F /  7.2 °C 30.2in /  1022.7hPa North 2.9mph /  4.7km/h 10mph /  16.1km/h 39% 0in /  0.0mm 290 W/m2
17:19 71.4 °F /  21.9 °C 44.4 °F /  6.9 °C 30.2in /  1022.7hPa WNW 4mph /  6.4km/h 8mph /  12.9km/h 38% 0in /  0.0mm 283 W/m2
17:24 71.4 °F /  21.9 °C 44.4 °F /  6.9 °C 30.2in /  1022.7hPa West 2mph /  3.2km/h 4mph /  6.4km/h 38% 0in /  0.0mm 197 W/m2
17:29 71.2 °F /  21.8 °C 44.2 °F /  6.8 °C 30.2in /  1022.7hPa ESE 0.9mph /  1.4km/h 9mph /  14.5km/h 38% 0in /  0.0mm 176 W/m2
17:34 71.4 °F /  21.9 °C 45.1 °F /  7.3 °C 30.2in /  1022.7hPa ENE 0.9mph /  1.4km/h 4mph /  6.4km/h 39% 0in /  0.0mm 536 W/m2
17:39 71.4 °F /  21.9 °C 43.7 °F /  6.5 °C 30.2in /  1022.7hPa WNW 2mph /  3.2km/h 9mph /  14.5km/h 37% 0in /  0.0mm 146 W/m2
17:44 71.4 °F /  21.9 °C 45.1 °F /  7.3 °C 30.2in /  1022.7hPa WNW 2mph /  3.2km/h 3mph /  4.8km/h 39% 0in /  0.0mm 654 W/m2
17:49 71.4 °F /  21.9 °C 44.4 °F /  6.9 °C 30.2in /  1022.7hPa WNW 2mph /  3.2km/h 4mph /  6.4km/h 38% 0in /  0.0mm 121 W/m2
17:54 71.2 °F /  21.8 °C 45.7 °F /  7.6 °C 30.2in /  1022.7hPa NW 2mph /  3.2km/h 3mph /  4.8km/h 40% 0in /  0.0mm 134 W/m2
17:59 70.9 °F /  21.6 °C 45.3 °F /  7.4 °C 30.2in /  1022.7hPa WNW 4mph /  6.4km/h 4mph /  6.4km/h 40% 0in /  0.0mm 79 W/m2
18:04 70.3 °F /  21.3 °C 46.2 °F /  7.9 °C 30.2in /  1022.7hPa NNW 4.9mph /  7.9km/h 5mph /  8km/h 42% 0in /  0.0mm 90 W/m2
18:09 70.2 °F /  21.2 °C 45.3 °F /  7.4 °C 30.2in /  1022.7hPa WNW 4mph /  6.4km/h 8mph /  12.9km/h 41% 0in /  0.0mm 113 W/m2
18:14 70.2 °F /  21.2 °C 45.3 °F /  7.4 °C 30.2in /  1022.7hPa WNW 2mph /  3.2km/h 4mph /  6.4km/h 41% 0in /  0.0mm 116 W/m2
18:19 70.2 °F /  21.2 °C 45.3 °F /  7.4 °C 30.2in /  1022.7hPa NW 2mph /  3.2km/h 3mph /  4.8km/h 41% 0in /  0.0mm 98 W/m2
18:24 70 °F /  21.1 °C 45.9 °F /  7.7 °C 30.2in /  1022.7hPa West 2.9mph /  4.7km/h 3mph /  4.8km/h 42% 0in /  0.0mm 114 W/m2
18:29 70.2 °F /  21.2 °C 46 °F /  7.8 °C 30.2in /  1022.7hPa NNW 2mph /  3.2km/h 5mph /  8km/h 42% 0in /  0.0mm 114 W/m2
18:34 70.9 °F /  21.6 °C 45.3 °F /  7.4 °C 30.2in /  1022.7hPa WSW 2mph /  3.2km/h 3mph /  4.8km/h 40% 0in /  0.0mm 408 W/m2
18:39 71.6 °F /  22 °C 45.3 °F /  7.4 °C 30.2in /  1022.7hPa West 0.9mph /  1.4km/h 5mph /  8km/h 39% 0in /  0.0mm 374 W/m2
18:44 72.1 °F /  22.3 °C 45.9 °F /  7.7 °C 30.2in /  1022.7hPa East 2mph /  3.2km/h 3mph /  4.8km/h 39% 0in /  0.0mm 338 W/m2
18:49 72.5 °F /  22.5 °C 46.2 °F /  7.9 °C 30.2in /  1022.7hPa West 6mph /  9.7km/h 6mph /  9.7km/h 39% 0in /  0.0mm 325 W/m2
18:54 72.9 °F /  22.7 °C 45.7 °F /  7.6 °C 30.2in /  1022.7hPa NNW 2mph /  3.2km/h 4mph /  6.4km/h 38% 0in /  0.0mm 316 W/m2
18:59 73 °F /  22.8 °C 45.9 °F /  7.7 °C 30.2in /  1022.7hPa WNW 2.9mph /  4.7km/h 5mph /  8km/h 38% 0in /  0.0mm 290 W/m2
19:04 72.5 °F /  22.5 °C 44.8 °F /  7.1 °C 30.2in /  1022.7hPa West 2.9mph /  4.7km/h 4mph /  6.4km/h 37% 0in /  0.0mm 190 W/m2
19:09 71.6 °F /  22 °C 43.9 °F /  6.6 °C 30.2in /  1022.7hPa West 6mph /  9.7km/h 7mph /  11.3km/h 37% 0in /  0.0mm 63 W/m2
19:14 70.9 °F /  21.6 °C 44.1 °F /  6.7 °C 30.2in /  1022.7hPa WNW 2.9mph /  4.7km/h 3mph /  4.8km/h 38% 0in /  0.0mm 214 W/m2
19:19 70.5 °F /  21.4 °C 43.7 °F /  6.5 °C 30.2in /  1022.7hPa WNW 2.9mph /  4.7km/h 4mph /  6.4km/h 38% 0in /  0.0mm 46 W/m2
19:24 70.7 °F /  21.5 °C 43.9 °F /  6.6 °C 30.2in /  1022.7hPa NNW 2mph /  3.2km/h 2mph /  3.2km/h 38% 0in /  0.0mm 299 W/m2
19:29 71.4 °F /  21.9 °C 44.4 °F /  6.9 °C 30.2in /  1023.0hPa North 2.9mph /  4.7km/h 4mph /  6.4km/h 38% 0in /  0.0mm 294 W/m2
19:34 72.1 °F /  22.3 °C 45.1 °F /  7.3 °C 30.2in /  1022.7hPa West 0.9mph /  1.4km/h 2mph /  3.2km/h 38% 0in /  0.0mm 276 W/m2
19:39 72.7 °F /  22.6 °C 45 °F /  7.2 °C 30.2in /  1022.7hPa Calm   3mph /  4.8km/h 37% 0in /  0.0mm 260 W/m2
19:44 73 °F /  22.8 °C 45.9 °F /  7.7 °C 30.2in /  1022.7hPa West 2mph /  3.2km/h 3mph /  4.8km/h 38% 0in /  0.0mm 236 W/m2
19:49 73 °F /  22.8 °C 45.1 °F /  7.3 °C 30.2in /  1023.0hPa North 0.9mph /  1.4km/h 5mph /  8km/h 37% 0in /  0.0mm 192 W/m2
19:54 72.9 °F /  22.7 °C 45.1 °F /  7.3 °C 30.2in /  1023.0hPa WSW 4mph /  6.4km/h 6mph /  9.7km/h 37% 0in /  0.0mm 167 W/m2
19:59 72.1 °F /  22.3 °C 45.1 °F /  7.3 °C 30.2in /  1023.0hPa WNW 2.9mph /  4.7km/h 5mph /  8km/h 38% 0in /  0.0mm 160 W/m2
20:04 71.6 °F /  22 °C 45.3 °F /  7.4 °C 30.2in /  1023.0hPa WNW 2.9mph /  4.7km/h 5mph /  8km/h 39% 0in /  0.0mm 158 W/m2
20:09 71.2 °F /  21.8 °C 45.7 °F /  7.6 °C 30.2in /  1023.0hPa West 0.9mph /  1.4km/h 7mph /  11.3km/h 40% 0in /  0.0mm 155 W/m2
20:14 71.2 °F /  21.8 °C 45 °F /  7.2 °C 30.2in /  1023.0hPa NW 0.9mph /  1.4km/h 4mph /  6.4km/h 39% 0in /  0.0mm 139 W/m2
20:19 71.2 °F /  21.8 °C 45 °F /  7.2 °C 30.2in /  1023.0hPa NW 2mph /  3.2km/h 7mph /  11.3km/h 39% 0in /  0.0mm 128 W/m2
20:24 71.2 °F /  21.8 °C 45.7 °F /  7.6 °C 30.2in /  1023.0hPa WNW 2mph /  3.2km/h 4mph /  6.4km/h 40% 0in /  0.0mm 116 W/m2
20:29 71.2 °F /  21.8 °C 45.7 °F /  7.6 °C 30.2in /  1023.0hPa NNW 4.9mph /  7.9km/h 6mph /  9.7km/h 40% 0in /  0.0mm 104 W/m2
20:34 71.1 °F /  21.7 °C 46.2 °F /  7.9 °C 30.2in /  1023.0hPa North 2mph /  3.2km/h 6mph /  9.7km/h 41% 0in /  0.0mm 91 W/m2
20:39 70.9 °F /  21.6 °C 46 °F /  7.8 °C 30.2in /  1023.0hPa NNE 4mph /  6.4km/h 5mph /  8km/h 41% 0in /  0.0mm 77 W/m2
20:44 70.5 °F /  21.4 °C 46.4 °F /  8 °C 30.2in /  1023.0hPa NW 0.9mph /  1.4km/h 6mph /  9.7km/h 42% 0in /  0.0mm 63 W/m2
20:49 70.3 °F /  21.3 °C 46.2 °F /  7.9 °C 30.2in /  1023.0hPa Calm     42% 0in /  0.0mm 56 W/m2
20:54 70.2 °F /  21.2 °C 46.6 °F /  8.1 °C 30.2in /  1023.0hPa NNW 0.9mph /  1.4km/h 2mph /  3.2km/h 43% 0in /  0.0mm 49 W/m2
20:59 69.8 °F /  21 °C 45.7 °F /  7.6 °C 30.2in /  1023.0hPa NNW 2.9mph /  4.7km/h 3mph /  4.8km/h 42% 0in /  0.0mm 42 W/m2
21:04 69.6 °F /  20.9 °C 46.2 °F /  7.9 °C 30.2in /  1023.4hPa NNW 4mph /  6.4km/h 4mph /  6.4km/h 43% 0in /  0.0mm 35 W/m2
21:09 69.4 °F /  20.8 °C 46.6 °F /  8.1 °C 30.2in /  1023.4hPa Calm   2mph /  3.2km/h 44% 0in /  0.0mm 28 W/m2
21:14 69.3 °F /  20.7 °C 46.4 °F /  8 °C 30.2in /  1023.4hPa NW 0.9mph /  1.4km/h 2mph /  3.2km/h 44% 0in /  0.0mm 23 W/m2
21:19 68.5 °F /  20.3 °C 46.4 °F /  8 °C 30.2in /  1023.4hPa WNW 0.9mph /  1.4km/h 2mph /  3.2km/h 45% 0in /  0.0mm 14 W/m2
21:29 67.3 °F /  19.6 °C 46.4 °F /  8 °C 30.2in /  1023.4hPa WSW 0.9mph /  1.4km/h 2mph /  3.2km/h 47% 0in /  0.0mm 9 W/m2
21:34 66.6 °F /  19.2 °C 46.2 °F /  7.9 °C 30.2in /  1023.4hPa West 0.9mph /  1.4km/h 2mph /  3.2km/h 48% 0in /  0.0mm 7 W/m2
21:39 66 °F /  18.9 °C 46.8 °F /  8.2 °C 30.2in /  1023.4hPa Calm   1mph /  1.6km/h 50% 0in /  0.0mm 5 W/m2
21:44 65.5 °F /  18.6 °C 46.9 °F /  8.3 °C 30.2in /  1023.4hPa Calm   1mph /  1.6km/h 51% 0in /  0.0mm 0 W/m2
21:49 64.9 °F /  18.3 °C 46.9 °F /  8.3 °C 30.2in /  1023.4hPa Calm     52% 0in /  0.0mm 0 W/m2
21:54 64.4 °F /  18 °C 46.9 °F /  8.3 °C 30.2in /  1023.4hPa Calm   1mph /  1.6km/h 53% 0in /  0.0mm 0 W/m2
21:59 64 °F /  17.8 °C 46.6 °F /  8.1 °C 30.2in /  1023.4hPa Calm     53% 0in /  0.0mm 0 W/m2
22:04 63.5 °F /  17.5 °C 46 °F /  7.8 °C 30.2in /  1023.4hPa WSW 2mph /  3.2km/h 2mph /  3.2km/h 53% 0in /  0.0mm 0 W/m2
22:09 63.1 °F /  17.3 °C 46.2 °F /  7.9 °C 30.2in /  1023.4hPa Calm   2mph /  3.2km/h 54% 0in /  0.0mm 0 W/m2
22:15 63 °F /  17.2 °C 46 °F /  7.8 °C 30.2in /  1023.4hPa WSW 0.9mph /  1.4km/h 3mph /  4.8km/h 54% 0in /  0.0mm 0 W/m2
22:20 62.6 °F /  17 °C 46.2 °F /  7.9 °C 30.2in /  1023.7hPa Calm     55% 0in /  0.0mm 0 W/m2
22:25 62.4 °F /  16.9 °C 46 °F /  7.8 °C 30.2in /  1023.7hPa Calm   3mph /  4.8km/h 55% 0in /  0.0mm 0 W/m2
22:30 62.2 °F /  16.8 °C 45.9 °F /  7.7 °C 30.2in /  1023.7hPa NW 0.9mph /  1.4km/h 2mph /  3.2km/h 55% 0in /  0.0mm 0 W/m2
22:35 62.1 °F /  16.7 °C 46.2 °F /  7.9 °C 30.2in /  1023.7hPa NNE 0.9mph /  1.4km/h 1mph /  1.6km/h 56% 0in /  0.0mm 0 W/m2
22:40 61.9 °F /  16.6 °C 46.4 °F /  8 °C 30.2in /  1023.7hPa Calm   1mph /  1.6km/h 57% 0in /  0.0mm 0 W/m2
22:45 61.7 °F /  16.5 °C 46.4 °F /  8 °C 30.2in /  1024.0hPa West 0.9mph /  1.4km/h 3mph /  4.8km/h 57% 0in /  0.0mm 0 W/m2
22:50 61.5 °F /  16.4 °C 46.2 °F /  7.9 °C 30.2in /  1024.0hPa Calm   1mph /  1.6km/h 57% 0in /  0.0mm 0 W/m2
22:55 61.5 °F /  16.4 °C 47.1 °F /  8.4 °C 30.2in /  1024.0hPa West 2mph /  3.2km/h 3mph /  4.8km/h 59% 0in /  0.0mm 0 W/m2
23:00 61.9 °F /  16.6 °C 47.5 °F /  8.6 °C 30.2in /  1024.0hPa WNW 0.9mph /  1.4km/h 2mph /  3.2km/h 59% 0in /  0.0mm 0 W/m2
23:05 62.1 °F /  16.7 °C 48 °F /  8.9 °C 30.2in /  1024.0hPa WNW 2mph /  3.2km/h 3mph /  4.8km/h 60% 0in /  0.0mm 0 W/m2
23:10 62.1 °F /  16.7 °C 48 °F /  8.9 °C 30.2in /  1024.0hPa WNW 0.9mph /  1.4km/h 2mph /  3.2km/h 60% 0in /  0.0mm 0 W/m2
23:15 61.9 °F /  16.6 °C 48.2 °F /  9 °C 30.2in /  1024.0hPa WNW 0.9mph /  1.4km/h 2mph /  3.2km/h 61% 0in /  0.0mm 0 W/m2
23:20 61.5 °F /  16.4 °C 48.4 °F /  9.1 °C 30.2in /  1024.0hPa NNW 0.9mph /  1.4km/h 5mph /  8km/h 62% 0in /  0.0mm 0 W/m2
23:25 61.5 °F /  16.4 °C 48.4 °F /  9.1 °C 30.2in /  1024.0hPa WNW 2mph /  3.2km/h 4mph /  6.4km/h 62% 0in /  0.0mm 0 W/m2
23:30 61.9 °F /  16.6 °C 48.2 °F /  9 °C 30.2in /  1024.0hPa NNW 2mph /  3.2km/h 3mph /  4.8km/h 61% 0in /  0.0mm 0 W/m2
23:35 62.1 °F /  16.7 °C 48.4 °F /  9.1 °C 30.2in /  1024.0hPa WNW 2mph /  3.2km/h 4mph /  6.4km/h 61% 0in /  0.0mm 0 W/m2
23:40 62.2 °F /  16.8 °C 48.6 °F /  9.2 °C 30.2in /  1024.0hPa West 0.9mph /  1.4km/h 4mph /  6.4km/h 61% 0in /  0.0mm 0 W/m2
23:45 62.2 °F /  16.8 °C 48.6 °F /  9.2 °C 30.2in /  1024.0hPa NW 2mph /  3.2km/h 4mph /  6.4km/h 61% 0in /  0.0mm 0 W/m2
23:50 62.1 °F /  16.7 °C 48.9 °F /  9.4 °C 30.2in /  1024.0hPa NW 4mph /  6.4km/h 5mph /  8km/h 62% 0in /  0.0mm 0 W/m2
23:55 62.1 °F /  16.7 °C 48.9 °F /  9.4 °C 30.2in /  1024.0hPa West 2mph /  3.2km/h 4mph /  6.4km/h 62% 0in /  0.0mm 0 W/m2
Juneau County Weather
Compliments of Weather Underground - 4 mb